Time;durP1;ratioP1;P1;durP2;ratioP2;P2;SDS_P1;SDS_P2;PMS_P1;PMS_P2;Temp;Humidity;BMP_temperature;BMP_pressure;BME280_temperature;BME280_humidity;BME280_pressure;Samples;Min_cycle;Max_cycle;Signal;HPM_P1;HPM_P2
2023/12/10 00:00:15;;;;;;;1.77;0.88;;;24.50;99.90;;;;;;5031648;28;20197;-76
2023/12/10 00:02:46;;;;;;;1.48;0.60;;;24.40;99.90;;;;;;5031944;28;20197;-76
2023/12/10 00:05:17;;;;;;;2.72;0.93;;;24.50;99.90;;;;;;5031329;28;20652;-76
2023/12/10 00:07:50;;;;;;;1.45;0.63;;;24.60;99.90;;;;;;5031559;28;20576;-76
2023/12/10 00:10:21;;;;;;;1.13;0.60;;;24.80;99.90;;;;;;5031559;28;20228;-76
2023/12/10 00:12:51;;;;;;;1.15;0.60;;;24.90;99.90;;;;;;5030571;28;20201;-76
2023/12/10 00:15:22;;;;;;;2.15;0.80;;;24.90;99.90;;;;;;5031018;28;20229;-76
2023/12/10 00:17:53;;;;;;;2.00;0.60;;;25.00;99.90;;;;;;5030717;28;20204;-75
2023/12/10 00:20:25;;;;;;;2.28;0.57;;;25.20;99.90;;;;;;5031042;28;20237;-75
2023/12/10 00:22:58;;;;;;;4.38;0.88;;;25.20;99.90;;;;;;5037021;28;20202;-77
2023/12/10 00:25:31;;;;;;;3.17;0.70;;;25.30;99.90;;;;;;5034053;28;20248;-75
2023/12/10 00:28:02;;;;;;;2.33;0.77;;;25.20;99.90;;;;;;5032634;28;20201;-77
2023/12/10 00:30:33;;;;;;;1.75;0.82;;;25.20;99.90;;;;;;5036125;28;20245;-76
2023/12/10 00:33:04;;;;;;;2.65;0.80;;;25.30;99.90;;;;;;5034653;28;20289;-77
2023/12/10 00:35:34;;;;;;;2.53;0.93;;;25.30;99.90;;;;;;5035721;28;20530;-77
2023/12/10 00:38:07;;;;;;;3.55;0.85;;;25.30;99.90;;;;;;5030599;28;20209;-77
2023/12/10 00:40:38;;;;;;;6.07;1.00;;;25.20;99.90;;;;;;5030761;28;20201;-77
2023/12/10 00:43:10;;;;;;;3.75;0.88;;;25.20;99.90;;;;;;5030679;28;20672;-77
2023/12/10 00:45:41;;;;;;;1.70;0.88;;;25.30;99.90;;;;;;5029673;28;20552;-76
2023/12/10 00:48:12;;;;;;;2.78;1.00;;;25.30;99.90;;;;;;5029791;28;20201;-76
2023/12/10 00:50:45;;;;;;;3.10;0.93;;;25.30;99.90;;;;;;5031070;28;20245;-77
2023/12/10 00:53:19;;;;;;;2.42;0.77;;;25.30;99.90;;;;;;5030868;28;20567;-77
2023/12/10 00:55:49;;;;;;;3.97;1.23;;;25.30;99.90;;;;;;5031015;28;20197;-76
2023/12/10 00:58:20;;;;;;;3.15;0.98;;;25.30;99.90;;;;;;5030756;28;20708;-76
2023/12/10 01:00:51;;;;;;;2.53;0.95;;;25.30;99.90;;;;;;5030704;28;20215;-76
2023/12/10 01:03:22;;;;;;;3.15;1.00;;;25.30;99.90;;;;;;5031071;28;20275;-76
2023/12/10 01:05:53;;;;;;;2.40;0.85;;;25.30;99.90;;;;;;5029483;28;20247;-76
2023/12/10 01:08:25;;;;;;;3.25;1.02;;;25.30;99.90;;;;;;5011203;28;20620;-76
2023/12/10 01:10:56;;;;;;;2.63;1.02;;;25.20;99.90;;;;;;5011029;28;20669;-76
2023/12/10 01:13:27;;;;;;;2.38;1.20;;;25.20;99.90;;;;;;5029397;28;20541;-76
2023/12/10 01:15:58;;;;;;;2.03;0.90;;;25.20;99.90;;;;;;5027692;28;20304;-76
2023/12/10 01:18:29;;;;;;;2.42;1.02;;;25.20;99.90;;;;;;5015926;28;20558;-76
2023/12/10 01:21:00;;;;;;;2.35;1.00;;;25.20;99.90;;;;;;5030321;28;20197;-76
2023/12/10 01:23:32;;;;;;;5.13;1.27;;;25.30;99.90;;;;;;5030332;28;20575;-76
2023/12/10 01:26:03;;;;;;;2.08;1.17;;;25.30;99.90;;;;;;5015736;28;20304;-76
2023/12/10 01:28:34;;;;;;;4.30;1.27;;;25.30;99.90;;;;;;5019070;28;20225;-76
2023/12/10 01:31:05;;;;;;;3.95;1.35;;;25.30;99.90;;;;;;5029550;28;20203;-76
2023/12/10 01:33:36;;;;;;;2.80;1.08;;;25.30;99.90;;;;;;5026723;28;20208;-76
2023/12/10 01:36:07;;;;;;;3.72;1.20;;;25.30;99.90;;;;;;5028875;28;20203;-76
2023/12/10 01:38:40;;;;;;;5.28;1.48;;;25.30;99.90;;;;;;5031429;28;20189;-76
2023/12/10 01:41:11;;;;;;;4.25;1.52;;;25.30;99.90;;;;;;5024599;28;20278;-75
2023/12/10 01:43:41;;;;;;;2.78;1.20;;;25.30;99.90;;;;;;5025477;28;20201;-76
2023/12/10 01:46:12;;;;;;;3.50;1.20;;;25.40;99.90;;;;;;5018009;28;20239;-75
2023/12/10 01:48:44;;;;;;;4.65;1.65;;;25.40;99.90;;;;;;5027435;28;20233;-76
2023/12/10 01:51:15;;;;;;;2.33;1.55;;;25.40;99.90;;;;;;5029930;28;20201;-76
2023/12/10 01:53:48;;;;;;;4.30;1.50;;;25.40;99.90;;;;;;5020646;28;20197;-75
2023/12/10 01:56:20;;;;;;;5.15;1.52;;;25.40;99.90;;;;;;5018627;28;20217;-75
2023/12/10 01:58:51;;;;;;;4.53;1.45;;;25.40;99.90;;;;;;5024199;28;20200;-75
2023/12/10 02:01:23;;;;;;;4.47;1.40;;;25.50;99.90;;;;;;5014585;28;20284;-76
2023/12/10 02:03:54;;;;;;;3.47;1.30;;;25.50;99.90;;;;;;5018743;28;20201;-77
2023/12/10 02:06:25;;;;;;;3.45;1.45;;;25.60;99.90;;;;;;5022415;28;20213;-77
2023/12/10 02:08:58;;;;;;;4.78;1.30;;;25.80;99.90;;;;;;5024843;28;20233;-75
2023/12/10 02:11:29;;;;;;;3.88;1.40;;;25.80;99.90;;;;;;5019316;28;20197;-75
2023/12/10 02:14:00;;;;;;;3.78;1.60;;;25.90;99.90;;;;;;5022673;28;20189;-75
2023/12/10 02:16:31;;;;;;;4.28;1.55;;;26.00;99.90;;;;;;5014010;28;20190;-75
2023/12/10 02:19:02;;;;;;;4.53;1.42;;;26.10;99.90;;;;;;5031820;28;20288;-78
2023/12/10 02:21:34;;;;;;;4.32;1.77;;;26.20;99.90;;;;;;5015260;28;20487;-77
2023/12/10 02:24:12;;;;;;;4.75;1.48;;;26.30;99.90;;;;;;5013475;28;20808;-76
2023/12/10 02:26:45;;;;;;;5.72;1.50;;;26.30;99.90;;;;;;5014011;28;20312;-76
2023/12/10 02:29:16;;;;;;;4.50;1.20;;;26.40;99.90;;;;;;5025876;28;20225;-76
2023/12/10 02:31:47;;;;;;;3.70;1.40;;;26.50;99.90;;;;;;5033163;28;20288;-77
2023/12/10 02:34:18;;;;;;;4.57;1.52;;;26.50;99.90;;;;;;5032089;28;20232;-77
2023/12/10 02:36:48;;;;;;;6.45;1.67;;;26.70;99.90;;;;;;5032981;28;20288;-77
2023/12/10 02:39:19;;;;;;;6.65;2.17;;;26.90;99.90;;;;;;5032353;28;20198;-77
2023/12/10 02:41:52;;;;;;;3.40;1.40;;;27.00;99.90;;;;;;5014604;28;20246;-77
2023/12/10 02:44:23;;;;;;;4.22;1.42;;;27.10;99.90;;;;;;5013491;28;20248;-77
2023/12/10 02:46:54;;;;;;;4.57;1.20;;;27.30;99.90;;;;;;5017911;28;20691;-78
2023/12/10 02:49:25;;;;;;;2.88;1.30;;;27.40;99.90;;;;;;5030823;28;20281;-77
2023/12/10 02:51:55;;;;;;;2.25;1.10;;;27.50;99.90;;;;;;5024703;28;20281;-77
2023/12/10 02:54:26;;;;;;;6.55;1.90;;;27.60;99.90;;;;;;5030039;28;20280;-77
2023/12/10 02:56:59;;;;;;;5.90;1.40;;;27.60;99.90;;;;;;5032282;28;20292;-77
2023/12/10 02:59:30;;;;;;;6.32;1.88;;;27.70;99.90;;;;;;5018950;28;20197;-77
2023/12/10 03:02:01;;;;;;;4.38;1.67;;;27.80;99.90;;;;;;5031832;28;20239;-77
2023/12/10 03:04:31;;;;;;;4.70;1.30;;;27.90;99.90;;;;;;5014633;28;20229;-78
2023/12/10 03:07:02;;;;;;;3.53;1.23;;;27.90;99.90;;;;;;5016447;28;20313;-78
2023/12/10 03:09:33;;;;;;;5.80;1.52;;;27.90;99.90;;;;;;5013028;28;20701;-78
2023/12/10 03:12:06;;;;;;;4.95;1.60;;;27.90;99.90;;;;;;5024023;28;20229;-79
2023/12/10 03:14:37;;;;;;;7.35;1.73;;;27.90;99.90;;;;;;5024579;28;20689;-76
2023/12/10 03:17:08;;;;;;;4.70;1.98;;;28.00;99.90;;;;;;5021108;28;20715;-76
2023/12/10 03:19:41;;;;;;;5.38;1.85;;;28.10;99.90;;;;;;5013023;28;20284;-77
2023/12/10 03:22:12;;;;;;;4.47;1.38;;;28.30;99.90;;;;;;5019766;28;20201;-77
2023/12/10 03:24:43;;;;;;;4.28;1.40;;;28.40;99.90;;;;;;5032213;28;20731;-77
2023/12/10 03:27:16;;;;;;;5.20;1.33;;;28.40;99.90;;;;;;5029162;28;20275;-76
2023/12/10 03:29:47;;;;;;;4.68;1.50;;;28.40;99.90;;;;;;5023632;28;20289;-78
2023/12/10 03:32:18;;;;;;;3.50;1.40;;;28.50;99.90;;;;;;5012593;28;20787;-77
2023/12/10 03:34:48;;;;;;;4.38;1.30;;;28.50;99.90;;;;;;5015884;28;20185;-78
2023/12/10 03:37:21;;;;;;;3.45;1.02;;;28.70;99.90;;;;;;5031788;28;20292;-78
2023/12/10 03:39:52;;;;;;;3.00;1.10;;;28.70;99.90;;;;;;5021365;28;20212;-78
2023/12/10 03:42:24;;;;;;;3.38;1.17;;;28.80;99.90;;;;;;5030984;28;20267;-79
2023/12/10 03:44:55;;;;;;;4.55;1.25;;;28.90;99.90;;;;;;5031837;28;20297;-78
2023/12/10 03:47:26;;;;;;;5.03;1.33;;;28.90;99.90;;;;;;5012007;28;20313;-78
2023/12/10 03:49:57;;;;;;;3.55;1.20;;;29.00;99.90;;;;;;5012325;28;20194;-78
2023/12/10 03:52:27;;;;;;;4.65;1.50;;;29.10;99.90;;;;;;5016943;28;20569;-78
2023/12/10 03:54:58;;;;;;;3.70;1.05;;;29.10;99.90;;;;;;5012180;28;20307;-78
2023/12/10 03:57:31;;;;;;;5.57;1.40;;;29.20;99.90;;;;;;5030001;28;20237;-78
2023/12/10 04:00:03;;;;;;;4.00;1.20;;;29.20;99.90;;;;;;5027627;28;20208;-78
2023/12/10 04:02:33;;;;;;;3.20;1.30;;;29.10;99.90;;;;;;5031325;28;20193;-77
2023/12/10 04:05:04;;;;;;;5.47;1.55;;;29.20;99.90;;;;;;5031887;28;20204;-78
2023/12/10 04:07:35;;;;;;;5.03;1.30;;;29.30;99.90;;;;;;5031718;28;20287;-78
2023/12/10 04:10:06;;;;;;;4.63;1.60;;;29.30;99.90;;;;;;5031521;28;20252;-78
2023/12/10 04:12:39;;;;;;;3.10;1.27;;;29.40;99.90;;;;;;5030606;28;20288;-78
2023/12/10 04:15:10;;;;;;;5.22;1.48;;;29.40;99.90;;;;;;5031082;28;20251;-78
2023/12/10 04:17:42;;;;;;;5.60;1.60;;;29.30;99.90;;;;;;5032120;28;20719;-79
2023/12/10 04:20:14;;;;;;;5.18;1.75;;;29.40;99.90;;;;;;5030523;28;20200;-79
2023/12/10 04:22:44;;;;;;;5.22;1.52;;;29.30;99.90;;;;;;5031843;28;20197;-78
2023/12/10 04:25:15;;;;;;;5.82;1.60;;;29.30;99.90;;;;;;5031726;28;20305;-78
2023/12/10 04:27:48;;;;;;;6.90;1.80;;;29.50;99.90;;;;;;5027007;28;20205;-79
2023/12/10 04:30:20;;;;;;;8.75;1.77;;;29.50;99.90;;;;;;5031074;28;20248;-79
2023/12/10 04:32:51;;;;;;;5.75;1.75;;;29.70;99.90;;;;;;5031390;28;20660;-78
2023/12/10 04:35:22;;;;;;;6.35;1.60;;;29.70;99.90;;;;;;5031095;28;20192;-79
2023/12/10 04:37:53;;;;;;;7.78;1.60;;;29.80;99.90;;;;;;5031197;28;20197;-79
2023/12/10 04:40:23;;;;;;;6.13;1.67;;;29.80;99.90;;;;;;5031711;28;20244;-79
2023/12/10 04:43:00;;;;;;;4.90;1.60;;;29.50;99.90;;;;;;5031536;28;20636;-79
2023/12/10 04:45:31;;;;;;;4.47;1.38;;;29.40;99.90;;;;;;5039199;28;20591;-79
2023/12/10 04:48:02;;;;;;;4.25;1.35;;;29.40;99.90;;;;;;5031659;28;20298;-78
2023/12/10 04:50:32;;;;;;;6.47;1.45;;;29.20;99.90;;;;;;5031261;28;20300;-79
2023/12/10 04:53:03;;;;;;;5.57;1.55;;;29.20;99.90;;;;;;5031337;28;20276;-79
2023/12/10 04:55:34;;;;;;;5.13;1.45;;;29.00;99.90;;;;;;5030963;28;20204;-78
2023/12/10 04:58:07;;;;;;;5.35;1.70;;;29.00;99.90;;;;;;5042317;28;20281;-78
2023/12/10 05:00:38;;;;;;;9.65;2.05;;;28.90;99.90;;;;;;5050757;28;20265;-77
2023/12/10 05:03:09;;;;;;;4.60;1.08;;;28.70;99.90;;;;;;5029908;28;20616;-78
2023/12/10 05:05:40;;;;;;;4.60;1.33;;;28.60;99.90;;;;;;5028364;28;20646;-78
2023/12/10 05:08:10;;;;;;;3.35;1.33;;;28.70;99.90;;;;;;5030428;28;20216;-78
2023/12/10 05:10:41;;;;;;;4.20;1.30;;;28.80;99.90;;;;;;5031384;28;20264;-78
2023/12/10 05:13:14;;;;;;;8.00;2.70;;;28.80;99.90;;;;;;5032332;28;20251;-77
2023/12/10 05:15:48;;;;;;;5.18;2.10;;;28.70;99.90;;;;;;5031038;28;20197;-78
2023/12/10 05:18:19;;;;;;;3.42;1.60;;;28.60;99.90;;;;;;5030674;28;20727;-77
2023/12/10 05:20:50;;;;;;;6.03;1.92;;;28.50;99.90;;;;;;5029436;28;20197;-78
2023/12/10 05:23:21;;;;;;;5.68;1.85;;;28.50;99.90;;;;;;5010811;28;20237;-77
2023/12/10 05:25:52;;;;;;;7.32;1.88;;;28.60;99.90;;;;;;5010864;28;20197;-77
2023/12/10 05:28:25;;;;;;;6.57;1.92;;;28.80;99.90;;;;;;5030320;28;20193;-77
2023/12/10 05:30:55;;;;;;;6.43;1.83;;;28.70;99.90;;;;;;5030415;28;20281;-77
2023/12/10 05:33:26;;;;;;;6.75;1.92;;;28.70;99.90;;;;;;5030284;28;20373;-77
2023/12/10 05:35:57;;;;;;;8.75;2.50;;;28.60;99.90;;;;;;5030136;28;20194;-77
2023/12/10 05:38:28;;;;;;;9.68;2.22;;;28.50;99.90;;;;;;5028930;28;20201;-77
2023/12/10 05:40:59;;;;;;;7.40;1.95;;;28.50;99.90;;;;;;5029414;28;20284;-77
2023/12/10 05:43:32;;;;;;;6.82;2.08;;;28.40;99.90;;;;;;5030596;28;20292;-77
2023/12/10 05:46:03;;;;;;;6.05;1.80;;;28.40;99.90;;;;;;5029576;28;20255;-77
2023/12/10 05:48:33;;;;;;;6.72;2.17;;;28.40;99.90;;;;;;5029951;28;20280;-77
2023/12/10 05:51:04;;;;;;;10.90;2.30;;;28.30;99.90;;;;;;5029256;28;20202;-77
2023/12/10 05:53:35;;;;;;;8.60;2.03;;;28.30;99.90;;;;;;5030169;28;20208;-78
2023/12/10 05:56:07;;;;;;;7.00;2.00;;;28.30;99.90;;;;;;5031199;28;20247;-78
2023/12/10 05:58:40;;;;;;;5.78;2.30;;;28.10;99.90;;;;;;5030018;28;20201;-78
2023/12/10 06:01:11;;;;;;;7.55;2.40;;;27.90;99.90;;;;;;5030394;28;20198;-78
2023/12/10 06:03:42;;;;;;;7.13;2.58;;;27.80;99.90;;;;;;5030342;28;20201;-78
2023/12/10 06:06:13;;;;;;;7.00;2.00;;;27.80;99.90;;;;;;5028840;28;20701;-78
2023/12/10 06:08:44;;;;;;;7.72;2.53;;;27.70;99.90;;;;;;5030771;28;20228;-78
2023/12/10 06:11:15;;;;;;;7.93;2.80;;;27.70;99.90;;;;;;5033875;28;20216;-78
2023/12/10 06:13:51;;;;;;;6.75;2.85;;;27.60;99.90;;;;;;5033929;28;20201;-78
2023/12/10 06:16:22;;;;;;;8.98;3.15;;;27.50;99.90;;;;;;5030447;28;20651;-78
2023/12/10 06:18:52;;;;;;;9.35;3.10;;;27.30;99.90;;;;;;5036900;28;20187;-78
2023/12/10 06:21:23;;;;;;;8.27;3.65;;;27.30;99.90;;;;;;5034806;28;20288;-78
2023/12/10 06:23:54;;;;;;;9.05;4.18;;;27.40;99.90;;;;;;5029193;28;20197;-78
2023/12/10 06:26:25;;;;;;;9.30;3.40;;;27.30;99.90;;;;;;5030043;28;20256;-77
2023/12/10 06:28:58;;;;;;;7.90;3.72;;;27.30;99.90;;;;;;5030378;28;20200;-78
2023/12/10 06:31:29;;;;;;;12.73;3.97;;;27.50;99.90;;;;;;5030346;28;20763;-77
2023/12/10 06:33:59;;;;;;;10.88;3.50;;;27.50;99.90;;;;;;5029724;28;20208;-77
2023/12/10 06:36:30;;;;;;;8.20;3.85;;;27.50;99.90;;;;;;5029867;28;20288;-77
2023/12/10 06:39:01;;;;;;;8.70;4.05;;;27.40;99.90;;;;;;5032258;28;20198;-76
2023/12/10 06:41:32;;;;;;;7.35;4.50;;;27.30;99.90;;;;;;5033275;28;20367;-78
2023/12/10 06:44:05;;;;;;;12.02;7.75;;;27.40;99.90;;;;;;5033276;28;20288;-77
2023/12/10 06:46:35;;;;;;;14.90;8.88;;;27.30;99.90;;;;;;5032556;28;20696;-77
2023/12/10 06:49:06;;;;;;;15.48;9.55;;;27.20;99.90;;;;;;5033131;28;20906;-78
2023/12/10 06:51:37;;;;;;;14.77;9.75;;;27.10;99.90;;;;;;5032788;28;20259;-77
2023/12/10 06:54:09;;;;;;;17.85;12.68;;;27.20;99.90;;;;;;5035516;28;20263;-77
2023/12/10 06:56:40;;;;;;;18.48;13.05;;;27.20;99.90;;;;;;5033113;28;20327;-78
2023/12/10 06:59:16;;;;;;;17.33;12.70;;;27.10;99.90;;;;;;5033124;28;20228;-78
2023/12/10 07:01:47;;;;;;;15.68;12.82;;;27.00;99.90;;;;;;5033111;28;20201;-78
2023/12/10 07:04:18;;;;;;;20.48;13.20;;;27.00;99.90;;;;;;5032821;28;20248;-78
2023/12/10 07:06:49;;;;;;;19.77;14.05;;;27.00;99.90;;;;;;5032845;28;20217;-77
2023/12/10 07:09:23;;;;;;;17.00;13.65;;;26.90;99.90;;;;;;5033092;28;20201;-78
2023/12/10 07:11:54;;;;;;;19.92;15.00;;;26.70;99.90;;;;;;5031649;28;20216;-78
2023/12/10 07:14:26;;;;;;;20.02;14.68;;;26.70;99.90;;;;;;5032713;28;20678;-78
2023/12/10 07:16:57;;;;;;;19.48;15.35;;;26.60;99.90;;;;;;5032759;28;20201;-78
2023/12/10 07:19:28;;;;;;;18.45;14.88;;;26.70;99.90;;;;;;5032535;28;20739;-78
2023/12/10 07:21:59;;;;;;;20.10;15.68;;;26.80;99.90;;;;;;5032205;28;20319;-78
2023/12/10 07:24:30;;;;;;;16.58;12.35;;;26.80;99.90;;;;;;5032679;28;20239;-77
2023/12/10 07:27:01;;;;;;;16.70;11.80;;;26.70;99.90;;;;;;5031467;28;20275;-79
2023/12/10 07:29:34;;;;;;;18.45;11.20;;;26.60;99.90;;;;;;5032315;28;20307;-76
2023/12/10 07:32:05;;;;;;;16.40;10.98;;;26.70;99.90;;;;;;5032389;28;20281;-79
2023/12/10 07:34:36;;;;;;;20.45;11.55;;;26.70;99.90;;;;;;5032856;28;20233;-78
2023/12/10 07:37:07;;;;;;;15.85;10.63;;;26.60;99.90;;;;;;5037525;28;20281;-79
2023/12/10 07:39:38;;;;;;;15.45;10.73;;;26.50;99.90;;;;;;5044557;28;20198;-79
2023/12/10 07:42:09;;;;;;;14.82;10.40;;;26.40;99.90;;;;;;5034782;28;20296;-79
2023/12/10 07:44:42;;;;;;;16.38;10.55;;;26.40;99.90;;;;;;5032639;28;20247;-77
2023/12/10 07:47:13;;;;;;;16.23;10.65;;;26.30;99.90;;;;;;5032517;28;20279;-78
2023/12/10 07:49:44;;;;;;;15.13;10.10;;;26.30;99.90;;;;;;5030350;28;20203;-78
2023/12/10 07:52:15;;;;;;;18.67;10.73;;;26.30;99.90;;;;;;5032423;28;20200;-77
2023/12/10 07:54:46;;;;;;;19.42;11.07;;;26.20;99.90;;;;;;5021116;28;20275;-77
2023/12/10 07:57:17;;;;;;;17.30;10.70;;;26.30;99.90;;;;;;5032214;28;20277;-78
2023/12/10 07:59:49;;;;;;;15.95;10.55;;;26.20;99.90;;;;;;5031856;28;20232;-78
2023/12/10 08:02:20;;;;;;;16.70;10.15;;;26.20;99.90;;;;;;5031858;28;20664;-78
2023/12/10 08:04:51;;;;;;;15.32;9.98;;;26.20;99.90;;;;;;5030978;28;20195;-78
2023/12/10 08:07:22;;;;;;;17.40;10.27;;;26.20;99.90;;;;;;5011878;28;20236;-77
2023/12/10 08:09:53;;;;;;;17.00;9.88;;;26.20;99.90;;;;;;5011749;28;20664;-78
2023/12/10 08:12:27;;;;;;;15.63;9.82;;;26.20;99.90;;;;;;5025151;28;20679;-77
2023/12/10 08:15:00;;;;;;;20.48;11.15;;;26.10;99.90;;;;;;5031854;28;20274;-78
2023/12/10 08:17:31;;;;;;;15.80;9.02;;;26.00;99.90;;;;;;5031446;28;20739;-77
2023/12/10 08:20:02;;;;;;;15.88;9.00;;;26.00;99.90;;;;;;5030251;28;20680;-78
2023/12/10 08:22:33;;;;;;;16.60;8.93;;;25.90;99.90;;;;;;5031281;28;20674;-77
2023/12/10 08:25:05;;;;;;;17.05;8.32;;;25.90;99.90;;;;;;5031683;28;20660;-77
2023/12/10 08:27:36;;;;;;;16.67;7.85;;;25.90;99.90;;;;;;5031299;28;20223;-77
2023/12/10 08:30:09;;;;;;;16.02;8.43;;;25.90;99.90;;;;;;5031120;28;20291;-78
2023/12/10 08:32:40;;;;;;;17.88;7.53;;;25.80;99.90;;;;;;5031105;28;20727;-77
2023/12/10 08:35:11;;;;;;;16.25;7.88;;;25.80;99.90;;;;;;5031469;28;20255;-77
2023/12/10 08:37:42;;;;;;;14.35;8.38;;;25.80;99.90;;;;;;5030661;28;20657;-78
2023/12/10 08:40:16;;;;;;;14.30;8.02;;;25.80;99.90;;;;;;5031668;28;20209;-78
2023/12/10 08:42:47;;;;;;;15.73;8.13;;;25.80;99.90;;;;;;5030998;28;20201;-78
2023/12/10 08:45:20;;;;;;;15.80;6.68;;;25.80;99.90;;;;;;5030663;28;20653;-78
2023/12/10 08:47:51;;;;;;;14.35;6.97;;;25.70;99.90;;;;;;5030653;28;20229;-77
2023/12/10 08:50:22;;;;;;;16.95;7.72;;;25.60;99.90;;;;;;5034720;28;20688;-77
2023/12/10 08:52:53;;;;;;;14.15;7.00;;;25.60;99.90;;;;;;5053258;28;20195;-78
2023/12/10 08:55:24;;;;;;;13.57;6.03;;;25.50;99.90;;;;;;5046406;28;20216;-77
2023/12/10 08:57:55;;;;;;;14.10;5.50;;;25.50;99.90;;;;;;5039426;28;20346;-78
2023/12/10 09:00:27;;;;;;;15.35;5.38;;;25.50;99.90;;;;;;5030793;28;20208;-77
2023/12/10 09:02:58;;;;;;;11.88;5.30;;;25.40;99.90;;;;;;5031020;28;20280;-77
2023/12/10 09:05:30;;;;;;;10.38;5.30;;;25.30;99.90;;;;;;5030935;28;20297;-76
2023/12/10 09:08:01;;;;;;;13.57;5.82;;;25.30;99.90;;;;;;5030537;28;20219;-77
2023/12/10 09:10:32;;;;;;;12.38;5.43;;;25.30;99.90;;;;;;5029479;28;20239;-78
2023/12/10 09:13:03;;;;;;;11.25;5.40;;;25.30;99.90;;;;;;5030724;28;20236;-78
2023/12/10 09:15:36;;;;;;;11.50;5.60;;;25.20;99.90;;;;;;5030831;28;20197;-77
2023/12/10 09:18:07;;;;;;;14.50;5.70;;;25.20;99.90;;;;;;5037209;28;21121;-77
2023/12/10 09:20:37;;;;;;;13.60;5.32;;;25.20;99.90;;;;;;5034616;28;20300;-77
2023/12/10 09:23:08;;;;;;;10.43;5.28;;;25.20;99.90;;;;;;5030364;28;20200;-77
2023/12/10 09:25:39;;;;;;;15.13;5.65;;;25.20;99.90;;;;;;5030179;28;20247;-76
2023/12/10 09:28:10;;;;;;;14.88;5.32;;;25.20;99.90;;;;;;5029056;28;20329;-77
2023/12/10 09:30:43;;;;;;;13.13;5.25;;;25.20;99.90;;;;;;5030339;28;20590;-76
2023/12/10 09:33:14;;;;;;;17.00;5.40;;;25.10;99.90;;;;;;5030283;28;20282;-77
2023/12/10 09:35:45;;;;;;;13.45;5.57;;;25.10;99.90;;;;;;5030459;28;20276;-77
2023/12/10 09:38:16;;;;;;;13.38;5.07;;;25.00;99.90;;;;;;5030352;28;20284;-77
2023/12/10 09:40:47;;;;;;;14.35;5.72;;;25.10;99.90;;;;;;5030192;28;20205;-77
2023/12/10 09:43:18;;;;;;;16.10;5.63;;;25.10;99.90;;;;;;5029068;28;20248;-77
2023/12/10 09:45:50;;;;;;;15.50;5.90;;;25.10;99.90;;;;;;5028957;28;20308;-76
2023/12/10 09:48:22;;;;;;;11.55;5.43;;;25.10;99.90;;;;;;5026359;28;20299;-76
2023/12/10 09:50:53;;;;;;;13.02;5.55;;;25.10;99.90;;;;;;5029740;28;20197;-77
2023/12/10 09:53:24;;;;;;;12.45;5.57;;;25.10;99.90;;;;;;5029942;28;20212;-77
2023/12/10 09:55:55;;;;;;;12.85;5.43;;;25.10;99.90;;;;;;5029676;28;20743;-75
2023/12/10 09:58:26;;;;;;;11.43;5.63;;;25.00;99.90;;;;;;5010301;28;20706;-75
2023/12/10 10:01:02;;;;;;;15.15;5.85;;;25.00;99.90;;;;;;5024162;28;20204;-75
2023/12/10 10:03:36;;;;;;;14.00;5.20;;;25.00;99.90;;;;;;5029735;28;20280;-74
2023/12/10 10:06:08;;;;;;;13.80;5.57;;;25.10;99.90;;;;;;5017867;28;20477;-74
2023/12/10 10:08:39;;;;;;;14.30;5.90;;;25.10;99.90;;;;;;5028759;28;20217;-75
2023/12/10 10:11:10;;;;;;;13.20;5.53;;;25.10;99.90;;;;;;5023368;28;20278;-74
2023/12/10 10:13:43;;;;;;;13.32;4.97;;;25.00;99.90;;;;;;5014284;28;20281;-75
2023/12/10 10:16:16;;;;;;;14.18;5.18;;;25.00;99.90;;;;;;5022132;28;20225;-75
2023/12/10 10:18:49;;;;;;;10.98;5.07;;;25.10;99.90;;;;;;5036487;28;20189;-74
2023/12/10 10:21:20;;;;;;;11.77;4.95;;;25.10;99.90;;;;;;5013831;28;20656;-75
2023/12/10 10:23:51;;;;;;;16.98;5.05;;;25.10;99.90;;;;;;5024221;28;20280;-75
2023/12/10 10:26:22;;;;;;;14.10;5.13;;;25.10;99.90;;;;;;5033514;28;20207;-75
2023/12/10 10:28:54;;;;;;;16.20;5.28;;;25.10;99.90;;;;;;5033308;28;20321;-75
2023/12/10 10:31:26;;;;;;;12.20;5.05;;;25.10;99.90;;;;;;5033380;28;20194;-75
2023/12/10 10:33:58;;;;;;;13.90;4.70;;;25.10;99.90;;;;;;5032368;28;20229;-75
2023/12/10 10:36:29;;;;;;;13.45;4.63;;;25.10;99.90;;;;;;5033137;28;20243;-75
2023/12/10 10:39:00;;;;;;;13.05;4.82;;;25.10;99.90;;;;;;5033438;28;20288;-75
2023/12/10 10:41:32;;;;;;;16.63;5.32;;;25.10;99.90;;;;;;5048165;28;20201;-75
2023/12/10 10:44:02;;;;;;;12.25;4.65;;;25.10;99.90;;;;;;5023157;28;20260;-75
2023/12/10 10:46:35;;;;;;;16.70;5.10;;;25.10;99.90;;;;;;5032048;28;20225;-75
2023/12/10 10:49:06;;;;;;;12.80;4.82;;;25.10;99.90;;;;;;5031246;28;20627;-75
2023/12/10 10:51:39;;;;;;;13.05;4.68;;;25.10;99.90;;;;;;5019385;28;20197;-74
2023/12/10 10:54:10;;;;;;;10.27;4.20;;;25.10;99.90;;;;;;5012001;28;20251;-75
2023/12/10 10:56:41;;;;;;;11.32;3.90;;;25.10;99.90;;;;;;5017093;28;20208;-75
2023/12/10 10:59:31;;;;;;;13.48;3.95;;;25.20;99.90;;;;;;5031897;28;20620;-75
2023/12/10 11:02:07;;;;;;;12.55;4.20;;;25.20;99.90;;;;;;5031249;28;20251;-75
2023/12/10 11:04:40;;;;;;;11.98;4.10;;;25.20;99.90;;;;;;5031845;28;20284;-75
2023/12/10 11:07:11;;;;;;;13.52;3.85;;;25.20;99.90;;;;;;5030117;28;20711;-74
2023/12/10 11:09:56;;;;;;;11.68;3.58;;;25.20;99.90;;;;;;5031656;28;20229;-74
2023/12/10 11:12:48;;;;;;;10.95;3.28;;;25.10;99.90;;;;;;5031290;28;20208;-74
2023/12/10 11:15:32;;;;;;;10.50;3.10;;;25.10;99.90;;;;;;5031837;28;20197;-74
2023/12/10 11:18:05;;;;;;;11.80;3.60;;;25.10;99.90;;;;;;5034203;28;20189;-74
2023/12/10 11:20:40;;;;;;;9.70;3.05;;;25.10;99.90;;;;;;5044259;28;20268;-75
2023/12/10 11:23:12;;;;;;;14.13;3.38;;;25.10;99.90;;;;;;5031026;28;20284;-74
2023/12/10 11:25:43;;;;;;;12.00;3.10;;;25.10;99.90;;;;;;5031635;28;20288;-74
2023/12/10 11:28:17;;;;;;;8.60;2.88;;;25.10;99.90;;;;;;5030397;28;20231;-74
2023/12/10 11:30:48;;;;;;;12.73;3.25;;;25.00;99.90;;;;;;5021684;28;20201;-74
2023/12/10 11:33:21;;;;;;;11.98;2.95;;;25.00;99.90;;;;;;5024088;28;20589;-74
2023/12/10 11:35:52;;;;;;;11.85;3.08;;;25.00;99.90;;;;;;5035416;28;20231;-75
2023/12/10 11:38:23;;;;;;;12.63;3.40;;;25.00;99.90;;;;;;5017401;28;20295;-74
2023/12/10 11:40:54;;;;;;;11.88;3.20;;;25.00;99.90;;;;;;5011959;28;20285;-75
2023/12/10 11:43:26;;;;;;;12.60;3.40;;;24.90;99.90;;;;;;5011703;28;20213;-75
2023/12/10 11:47:49;;;;;;;15.10;3.38;;;24.90;99.90;;;;;;5107222;27;20507;-76
2023/12/10 11:50:19;;;;;;;12.75;2.85;;;24.90;99.90;;;;;;5105873;28;20293;-76
2023/12/10 11:52:50;;;;;;;13.10;2.92;;;24.90;99.90;;;;;;5094897;28;20237;-76
2023/12/10 11:55:21;;;;;;;12.20;3.03;;;24.90;99.90;;;;;;5090328;28;20199;-76
2023/12/10 11:57:52;;;;;;;8.98;2.67;;;24.90;99.90;;;;;;5088668;28;20601;-76
2023/12/10 12:00:24;;;;;;;12.48;3.15;;;24.90;99.90;;;;;;5087850;28;20210;-76
2023/12/10 12:02:57;;;;;;;13.27;3.15;;;24.90;99.90;;;;;;5100727;28;20198;-76
2023/12/10 12:05:28;;;;;;;13.30;3.05;;;24.90;99.90;;;;;;5087085;28;20278;-76
2023/12/10 12:07:59;;;;;;;9.82;2.92;;;24.90;99.90;;;;;;5087428;28;20286;-77
2023/12/10 12:10:39;;;;;;;9.90;2.80;;;24.90;99.90;;;;;;5103407;28;20599;-77
2023/12/10 12:13:10;;;;;;;13.02;2.70;;;24.90;99.90;;;;;;5103965;28;20656;-76
2023/12/10 12:15:46;;;;;;;11.75;3.00;;;24.90;99.90;;;;;;5113825;27;20704;-77
2023/12/10 12:18:18;;;;;;;11.32;2.50;;;24.90;99.90;;;;;;5102409;28;20281;-76
2023/12/10 12:20:49;;;;;;;15.27;2.72;;;24.90;99.90;;;;;;5107559;28;20757;-77
2023/12/10 12:23:20;;;;;;;11.10;2.75;;;24.90;99.90;;;;;;5107710;28;20749;-77
2023/12/10 12:25:51;;;;;;;11.18;2.78;;;24.90;99.90;;;;;;5106995;28;20225;-76
2023/12/10 12:28:22;;;;;;;12.93;2.70;;;24.90;99.90;;;;;;5094341;28;20212;-76
2023/12/10 12:30:53;;;;;;;10.05;2.50;;;24.90;99.90;;;;;;5107610;28;20287;-76
2023/12/10 12:33:25;;;;;;;12.98;2.60;;;24.90;99.90;;;;;;5107424;28;20301;-76
2023/12/10 12:35:56;;;;;;;13.10;2.42;;;24.90;99.90;;;;;;5104771;28;20282;-76
2023/12/10 12:38:27;;;;;;;13.93;3.00;;;24.80;99.90;;;;;;5107340;28;20286;-76
2023/12/10 12:40:58;;;;;;;12.60;3.05;;;24.90;99.90;;;;;;5107423;28;20629;-76
2023/12/10 12:43:29;;;;;;;10.40;2.53;;;24.80;99.90;;;;;;5101657;28;20200;-77
2023/12/10 12:45:59;;;;;;;18.58;3.22;;;24.80;99.90;;;;;;5084857;28;20353;-77
2023/12/10 12:48:32;;;;;;;16.27;3.13;;;24.70;99.90;;;;;;5106671;28;20199;-76
2023/12/10 12:51:03;;;;;;;11.38;2.40;;;24.70;99.90;;;;;;5106758;28;20191;-76
2023/12/10 12:53:34;;;;;;;16.15;2.97;;;24.70;99.90;;;;;;5105909;28;20661;-77
2023/12/10 12:56:05;;;;;;;11.73;2.53;;;24.70;99.90;;;;;;5087865;28;20208;-76
2023/12/10 12:58:36;;;;;;;9.65;2.30;;;24.70;99.90;;;;;;5079665;28;20660;-76
2023/12/10 13:01:07;;;;;;;18.00;2.67;;;24.60;99.90;;;;;;5072767;28;20196;-76
2023/12/10 13:03:39;;;;;;;12.15;2.75;;;24.60;99.90;;;;;;5087036;28;20298;-76